Time;durP1;ratioP1;P1;durP2;ratioP2;P2;SDS_P1;SDS_P2;PMS_P1;PMS_P2;Temp;Humidity;BMP_temperature;BMP_pressure;BME280_temperature;BME280_humidity;BME280_pressure;Samples;Min_cycle;Max_cycle;Signal;HPM_P1;HPM_P2
2021/09/29 00:00:44;;;;;;;13.43;4.03;;;12.30;74.30;;;;;;4971685;28;20389;-76
2021/09/29 00:03:10;;;;;;;10.90;3.90;;;12.20;74.70;;;;;;4971986;28;20470;-77
2021/09/29 00:05:38;;;;;;;5.60;3.43;;;12.20;75.70;;;;;;4972589;28;20408;-77
2021/09/29 00:08:05;;;;;;;13.48;4.20;;;12.10;76.30;;;;;;4971352;28;20400;-73
2021/09/29 00:10:31;;;;;;;12.70;3.60;;;12.10;77.20;;;;;;4966481;28;20402;-73
2021/09/29 00:12:57;;;;;;;7.90;3.80;;;12.10;77.20;;;;;;4970841;28;20416;-73
2021/09/29 00:15:22;;;;;;;9.77;3.67;;;12.10;76.80;;;;;;4971713;28;20467;-73
2021/09/29 00:17:48;;;;;;;7.70;3.50;;;12.00;76.50;;;;;;4970555;28;20409;-74
2021/09/29 00:20:15;;;;;;;9.80;4.03;;;12.00;77.10;;;;;;4973098;28;20430;-73
2021/09/29 00:22:41;;;;;;;9.10;3.40;;;12.00;78.70;;;;;;4972407;28;20431;-74
2021/09/29 00:25:10;;;;;;;10.75;3.58;;;12.00;78.50;;;;;;4974546;28;20731;-75
2021/09/29 00:27:36;;;;;;;10.77;3.72;;;11.90;80.30;;;;;;4959672;28;20493;-74
2021/09/29 00:30:07;;;;;;;11.70;4.03;;;11.90;79.30;;;;;;4958328;28;20809;-74
2021/09/29 00:32:35;;;;;;;12.95;3.85;;;11.90;80.40;;;;;;4963039;28;20918;-75
2021/09/29 00:35:01;;;;;;;8.43;3.50;;;11.90;79.00;;;;;;4964014;28;20770;-73
2021/09/29 00:37:27;;;;;;;10.38;3.38;;;11.80;79.80;;;;;;4972661;28;20403;-74
2021/09/29 00:39:53;;;;;;;12.33;3.70;;;11.80;80.40;;;;;;4973864;28;20472;-74
2021/09/29 00:42:19;;;;;;;9.50;3.40;;;11.80;79.30;;;;;;4974605;28;20403;-74
2021/09/29 00:44:45;;;;;;;13.63;3.90;;;11.80;81.10;;;;;;4977509;28;20392;-75
2021/09/29 00:47:11;;;;;;;14.20;4.45;;;11.80;82.40;;;;;;4976370;28;20396;-74
2021/09/29 00:49:37;;;;;;;9.90;3.45;;;11.70;83.20;;;;;;4972995;28;20455;-74
2021/09/29 00:52:03;;;;;;;11.88;4.03;;;11.70;84.40;;;;;;4976351;28;20408;-74
2021/09/29 00:54:29;;;;;;;10.88;3.58;;;11.60;85.60;;;;;;4977959;28;20430;-74
2021/09/29 00:56:56;;;;;;;6.63;3.35;;;11.60;86.00;;;;;;4993922;28;20474;-75
2021/09/29 00:59:22;;;;;;;9.55;3.75;;;11.60;86.70;;;;;;4991010;28;20459;-76
2021/09/29 01:01:49;;;;;;;11.10;4.00;;;11.60;87.50;;;;;;4986209;28;20388;-73
2021/09/29 01:04:16;;;;;;;10.98;4.30;;;11.70;86.90;;;;;;4980798;28;20393;-77
2021/09/29 01:06:47;;;;;;;10.55;4.00;;;11.70;86.40;;;;;;4979466;28;20447;-73
2021/09/29 01:09:34;;;;;;;11.30;4.03;;;11.70;86.30;;;;;;4980514;28;20419;-73
2021/09/29 01:12:15;;;;;;;11.50;3.80;;;11.70;85.70;;;;;;4975829;28;20411;-75
2021/09/29 01:14:56;;;;;;;8.48;3.65;;;11.60;86.20;;;;;;4975424;28;20384;-74
2021/09/29 01:17:22;;;;;;;17.00;4.38;;;11.70;85.60;;;;;;4976171;28;20742;-74
2021/09/29 01:20:17;;;;;;;16.77;4.25;;;11.70;84.50;;;;;;4976993;28;20392;-74
2021/09/29 01:23:16;;;;;;;11.48;3.63;;;11.70;83.90;;;;;;4980834;28;20761;-74
2021/09/29 01:26:06;;;;;;;7.18;3.50;;;11.70;83.50;;;;;;4981107;28;20484;-75
2021/09/29 01:28:39;;;;;;;13.63;4.03;;;11.70;84.40;;;;;;4974905;28;20443;-74
2021/09/29 01:31:05;;;;;;;7.55;3.88;;;11.70;83.90;;;;;;4975135;28;20388;-75
2021/09/29 01:33:33;;;;;;;8.38;3.65;;;11.70;83.10;;;;;;4974403;28;20415;-75
2021/09/29 01:35:59;;;;;;;11.55;3.85;;;11.80;81.00;;;;;;4975021;28;20376;-75
2021/09/29 01:38:25;;;;;;;10.23;3.90;;;11.70;81.70;;;;;;4989395;28;20400;-75
2021/09/29 01:40:52;;;;;;;10.27;3.92;;;11.70;82.00;;;;;;4990194;28;20395;-75
2021/09/29 01:43:19;;;;;;;14.35;4.45;;;11.70;82.00;;;;;;4990895;28;20400;-74
2021/09/29 01:45:46;;;;;;;10.60;3.80;;;11.70;81.80;;;;;;4976694;28;20813;-75
2021/09/29 01:48:12;;;;;;;13.98;3.72;;;11.80;80.20;;;;;;4974082;28;20735;-73
2021/09/29 01:50:40;;;;;;;9.65;3.55;;;11.80;80.90;;;;;;4973827;28;20411;-74
2021/09/29 01:53:09;;;;;;;11.07;4.40;;;11.80;79.10;;;;;;4973990;28;20412;-74
2021/09/29 01:55:36;;;;;;;9.85;3.60;;;11.80;78.70;;;;;;4976003;28;20384;-75
2021/09/29 01:58:02;;;;;;;10.55;4.40;;;11.80;79.80;;;;;;4993641;28;20434;-73
2021/09/29 02:00:28;;;;;;;16.13;3.80;;;11.80;79.70;;;;;;4960056;28;20406;-76
2021/09/29 02:02:56;;;;;;;8.52;3.50;;;11.80;78.60;;;;;;4971108;28;20412;-76
2021/09/29 02:05:32;;;;;;;13.20;3.40;;;11.90;78.00;;;;;;4973539;28;20412;-76
2021/09/29 02:08:00;;;;;;;11.05;4.10;;;11.90;77.10;;;;;;4974257;28;20423;-75
2021/09/29 02:10:26;;;;;;;10.77;4.32;;;11.90;77.70;;;;;;4972045;28;20866;-75
2021/09/29 02:12:52;;;;;;;12.45;4.28;;;11.90;77.00;;;;;;4955213;28;20919;-74
2021/09/29 02:15:18;;;;;;;12.73;3.83;;;12.00;77.00;;;;;;4958027;28;20431;-76
2021/09/29 02:17:43;;;;;;;7.93;4.13;;;12.00;75.40;;;;;;4972864;28;20436;-75
2021/09/29 02:20:10;;;;;;;8.80;3.97;;;12.00;75.00;;;;;;4956706;28;20425;-76
2021/09/29 02:22:38;;;;;;;8.85;3.70;;;12.00;75.40;;;;;;4954614;28;20398;-74
2021/09/29 02:25:04;;;;;;;13.25;4.05;;;12.00;75.80;;;;;;4954713;28;20388;-74
2021/09/29 02:27:29;;;;;;;13.70;3.80;;;12.00;75.50;;;;;;4954730;28;20484;-74
2021/09/29 02:29:55;;;;;;;13.10;4.23;;;12.10;74.70;;;;;;4963619;28;20411;-74
2021/09/29 02:32:20;;;;;;;11.87;4.70;;;12.10;74.50;;;;;;4972867;28;20414;-74
2021/09/29 02:34:46;;;;;;;10.63;3.90;;;12.10;74.70;;;;;;4959484;28;20388;-74
2021/09/29 02:37:12;;;;;;;9.73;3.90;;;12.10;74.90;;;;;;4975701;28;20456;-76
2021/09/29 02:39:37;;;;;;;12.30;3.70;;;12.10;74.40;;;;;;4981082;28;20412;-77
2021/09/29 02:42:04;;;;;;;12.73;3.72;;;12.00;74.00;;;;;;4974155;28;20401;-77
2021/09/29 02:44:31;;;;;;;8.02;3.78;;;12.10;74.00;;;;;;4969286;28;20416;-77
2021/09/29 02:46:56;;;;;;;9.82;3.72;;;12.00;74.20;;;;;;4974920;28;20750;-77
2021/09/29 02:49:22;;;;;;;12.73;4.00;;;12.00;73.40;;;;;;4974661;28;20388;-77
2021/09/29 02:51:47;;;;;;;13.53;3.80;;;12.00;73.70;;;;;;4975616;28;20396;-77
2021/09/29 02:54:13;;;;;;;6.93;3.80;;;12.00;73.70;;;;;;4975258;28;20445;-77
2021/09/29 02:56:39;;;;;;;11.18;4.20;;;11.90;74.80;;;;;;4980734;28;20804;-77
2021/09/29 02:59:05;;;;;;;9.85;3.70;;;11.80;76.30;;;;;;4974442;28;20491;-76
2021/09/29 03:01:30;;;;;;;9.20;3.80;;;11.80;77.30;;;;;;4971389;28;20762;-75
2021/09/29 03:03:56;;;;;;;12.27;4.00;;;11.70;79.50;;;;;;4970928;28;20404;-76
2021/09/29 03:06:22;;;;;;;14.13;4.13;;;11.70;78.90;;;;;;4972901;28;20396;-76
2021/09/29 03:08:47;;;;;;;12.93;4.60;;;11.70;78.60;;;;;;4972612;28;20396;-76
2021/09/29 03:11:13;;;;;;;13.63;4.50;;;11.70;79.70;;;;;;4963372;28;20454;-76
2021/09/29 03:13:38;;;;;;;8.73;3.90;;;11.60;81.00;;;;;;4972914;28;20467;-76
2021/09/29 03:16:04;;;;;;;12.27;4.07;;;11.60;80.90;;;;;;4972626;28;20389;-76
2021/09/29 03:18:30;;;;;;;12.40;4.40;;;11.60;80.70;;;;;;4973640;28;20396;-76
2021/09/29 03:20:55;;;;;;;6.80;3.70;;;11.70;81.10;;;;;;4965554;28;20861;-75
2021/09/29 03:23:21;;;;;;;14.00;4.90;;;11.60;81.20;;;;;;4953436;28;20406;-75
2021/09/29 03:25:46;;;;;;;12.98;4.13;;;11.60;80.70;;;;;;4963807;28;20400;-75
2021/09/29 03:28:12;;;;;;;10.30;4.20;;;11.70;81.80;;;;;;4972739;28;20399;-74
2021/09/29 03:30:38;;;;;;;8.27;4.20;;;11.70;80.80;;;;;;4972906;28;20396;-75
2021/09/29 03:33:06;;;;;;;9.80;4.90;;;11.70;78.90;;;;;;4971320;28;20447;-74
2021/09/29 03:35:34;;;;;;;9.88;4.57;;;11.70;78.70;;;;;;4964737;28;20400;-74
2021/09/29 03:37:59;;;;;;;12.50;4.40;;;11.70;78.50;;;;;;4971105;28;20381;-73
2021/09/29 03:40:25;;;;;;;17.00;4.40;;;11.60;78.90;;;;;;4972276;28;20404;-74
2021/09/29 03:42:50;;;;;;;13.90;4.65;;;11.60;80.10;;;;;;4973532;28;20388;-74
2021/09/29 03:45:16;;;;;;;9.80;4.80;;;11.60;80.30;;;;;;4974300;28;20472;-76
2021/09/29 03:47:43;;;;;;;13.30;5.00;;;11.60;80.50;;;;;;4973912;28;20401;-75
2021/09/29 03:50:10;;;;;;;8.80;4.20;;;11.60;81.10;;;;;;4955333;28;20412;-75
2021/09/29 03:52:36;;;;;;;9.20;4.60;;;11.60;79.80;;;;;;4954657;28;20421;-75
2021/09/29 03:55:02;;;;;;;11.63;4.77;;;11.50;80.70;;;;;;4972573;28;20963;-77
2021/09/29 03:57:27;;;;;;;9.40;4.07;;;11.50;81.20;;;;;;4991945;28;20395;-75
2021/09/29 03:59:53;;;;;;;8.03;4.60;;;11.50;81.00;;;;;;4997226;28;20390;-74
2021/09/29 04:02:18;;;;;;;14.37;4.40;;;11.50;81.30;;;;;;4990150;28;20412;-74
2021/09/29 04:04:44;;;;;;;11.87;4.43;;;11.40;82.80;;;;;;4978383;28;20485;-75
2021/09/29 04:07:09;;;;;;;9.85;4.43;;;11.40;82.00;;;;;;4973795;28;20639;-76
2021/09/29 04:09:35;;;;;;;9.05;4.95;;;11.40;82.50;;;;;;4970428;28;20404;-74
2021/09/29 04:12:00;;;;;;;14.10;5.30;;;11.30;83.30;;;;;;4971905;28;20399;-76
2021/09/29 04:14:26;;;;;;;11.70;5.20;;;11.30;82.80;;;;;;4972084;28;20479;-75
2021/09/29 04:16:51;;;;;;;11.07;4.53;;;11.30;84.90;;;;;;4959609;28;20409;-75
2021/09/29 04:19:17;;;;;;;9.57;5.03;;;11.20;84.40;;;;;;4952660;28;20396;-76
2021/09/29 04:21:43;;;;;;;15.90;5.20;;;11.20;85.10;;;;;;4964869;28;20486;-76
2021/09/29 04:24:09;;;;;;;10.17;5.17;;;11.20;86.60;;;;;;4971136;28;20483;-75
2021/09/29 04:26:37;;;;;;;13.20;4.87;;;11.20;86.50;;;;;;4970183;28;20854;-77
2021/09/29 04:29:03;;;;;;;12.20;5.22;;;11.20;87.10;;;;;;4974586;28;20396;-75
2021/09/29 04:31:28;;;;;;;11.17;5.60;;;11.10;87.80;;;;;;4974346;28;21014;-77
2021/09/29 04:33:54;;;;;;;13.37;5.27;;;11.20;88.20;;;;;;4975117;28;20411;-76
2021/09/29 04:36:20;;;;;;;14.90;5.30;;;11.10;88.30;;;;;;4973748;28;20391;-75
2021/09/29 04:38:45;;;;;;;12.90;6.00;;;11.10;87.50;;;;;;4975581;28;20487;-76
2021/09/29 04:41:11;;;;;;;12.65;5.57;;;11.10;87.80;;;;;;4977629;28;20385;-76
2021/09/29 04:43:36;;;;;;;15.15;6.03;;;11.10;87.60;;;;;;4975939;28;20404;-76
2021/09/29 04:46:02;;;;;;;13.77;5.60;;;11.20;86.90;;;;;;4967342;28;20730;-75
2021/09/29 04:48:28;;;;;;;14.18;5.22;;;11.10;87.50;;;;;;4977268;28;20431;-76
2021/09/29 04:50:53;;;;;;;11.27;5.40;;;11.20;87.80;;;;;;4977084;28;20431;-75
2021/09/29 04:53:19;;;;;;;13.65;5.10;;;11.10;87.60;;;;;;4970974;28;20450;-77
2021/09/29 04:55:44;;;;;;;9.50;5.20;;;11.20;89.20;;;;;;4978699;28;20398;-76
2021/09/29 04:58:11;;;;;;;12.57;5.70;;;11.10;87.60;;;;;;4971848;28;20470;-75
2021/09/29 05:00:36;;;;;;;15.50;5.55;;;11.10;88.00;;;;;;4968601;28;20404;-75
2021/09/29 05:03:02;;;;;;;14.23;5.80;;;11.10;88.70;;;;;;4974472;28;20408;-74
2021/09/29 05:05:28;;;;;;;16.30;5.80;;;11.10;88.00;;;;;;4976787;28;20924;-76
2021/09/29 05:07:58;;;;;;;17.02;6.60;;;11.20;85.90;;;;;;4975709;28;20450;-75
2021/09/29 05:10:45;;;;;;;11.50;5.80;;;11.30;85.60;;;;;;4972082;28;20425;-77
2021/09/29 05:13:16;;;;;;;9.63;5.63;;;11.30;84.70;;;;;;4960132;28;20476;-76
2021/09/29 05:15:41;;;;;;;10.32;5.30;;;11.40;83.60;;;;;;4970853;28;20459;-77
2021/09/29 05:18:07;;;;;;;9.57;5.40;;;11.50;80.80;;;;;;4971774;28;20401;-77
2021/09/29 05:20:32;;;;;;;11.03;5.43;;;11.40;81.10;;;;;;4970196;28;20474;-76
2021/09/29 05:22:58;;;;;;;10.93;5.63;;;11.50;81.80;;;;;;4975155;28;20494;-74
2021/09/29 05:25:24;;;;;;;20.03;5.50;;;11.50;81.40;;;;;;4970027;28;20463;-76
2021/09/29 05:27:51;;;;;;;14.40;5.80;;;11.60;78.50;;;;;;4969410;28;20450;-77
2021/09/29 05:30:16;;;;;;;19.15;6.50;;;11.70;77.10;;;;;;4968277;28;20476;-75
2021/09/29 05:32:42;;;;;;;10.57;5.20;;;11.70;76.20;;;;;;4970423;28;20451;-76
2021/09/29 05:35:08;;;;;;;8.57;5.10;;;11.80;75.50;;;;;;4965165;28;20415;-76
2021/09/29 05:37:33;;;;;;;12.40;5.20;;;11.80;74.60;;;;;;4963778;28;20419;-76
2021/09/29 05:40:00;;;;;;;16.07;6.00;;;11.90;72.80;;;;;;4971496;28;20481;-76
2021/09/29 05:42:25;;;;;;;10.57;6.53;;;12.00;70.80;;;;;;4972379;28;21136;-75
2021/09/29 05:44:51;;;;;;;18.23;6.90;;;12.00;69.60;;;;;;4970171;28;20448;-77
2021/09/29 05:47:17;;;;;;;12.17;6.20;;;12.10;70.10;;;;;;4974096;28;20426;-77
2021/09/29 05:49:42;;;;;;;13.30;6.30;;;12.10;69.40;;;;;;4974596;28;20420;-77
2021/09/29 05:52:08;;;;;;;12.35;5.70;;;12.10;68.60;;;;;;4970802;28;20412;-77
2021/09/29 05:54:34;;;;;;;15.98;6.15;;;12.20;67.70;;;;;;4962413;28;20435;-76
2021/09/29 05:57:00;;;;;;;12.90;6.07;;;12.40;65.40;;;;;;4987412;28;20485;-77
2021/09/29 05:59:25;;;;;;;14.27;5.70;;;12.50;63.70;;;;;;4988834;28;20420;-74
2021/09/29 06:01:52;;;;;;;10.30;5.43;;;12.70;60.70;;;;;;4981499;28;20497;-75
2021/09/29 06:04:17;;;;;;;15.00;5.55;;;12.80;59.30;;;;;;4979470;28;20454;-75
2021/09/29 06:06:43;;;;;;;13.05;6.50;;;12.90;58.60;;;;;;4972121;28;20408;-76
2021/09/29 06:09:09;;;;;;;12.13;5.60;;;13.00;56.90;;;;;;4974386;28;20753;-74
2021/09/29 06:11:35;;;;;;;42.17;18.63;;;13.10;55.80;;;;;;4957495;28;20514;-74
2021/09/29 06:14:03;;;;;;;90.53;56.53;;;13.20;54.40;;;;;;4955487;28;20501;-74
2021/09/29 06:16:33;;;;;;;144.15;81.18;;;13.20;55.80;;;;;;4976944;28;20406;-75
2021/09/29 06:18:59;;;;;;;42.05;23.95;;;13.20;59.50;;;;;;4974809;28;20425;-74
2021/09/29 06:21:25;;;;;;;44.00;25.92;;;13.10;60.50;;;;;;4959540;28;20409;-75
2021/09/29 06:23:51;;;;;;;42.00;23.02;;;13.10;63.30;;;;;;4971435;28;20495;-77
2021/09/29 06:26:16;;;;;;;35.40;20.83;;;13.10;63.90;;;;;;4974762;28;20406;-75
2021/09/29 06:28:42;;;;;;;19.97;7.87;;;13.20;64.30;;;;;;4971388;28;20408;-76
2021/09/29 06:31:08;;;;;;;26.30;13.87;;;13.20;63.30;;;;;;4982494;28;20404;-75
2021/09/29 06:33:34;;;;;;;50.03;30.63;;;13.10;65.90;;;;;;4976900;28;20413;-76
2021/09/29 06:36:01;;;;;;;39.83;18.00;;;13.10;66.00;;;;;;4982360;28;20439;-74
2021/09/29 06:38:27;;;;;;;28.30;15.00;;;13.10;66.70;;;;;;4976142;28;20748;-76
2021/09/29 06:40:52;;;;;;;61.00;38.80;;;13.10;68.40;;;;;;4972515;28;20466;-74
2021/09/29 06:43:18;;;;;;;25.50;14.05;;;13.20;70.40;;;;;;4970260;28;20404;-74
2021/09/29 06:45:44;;;;;;;27.95;15.48;;;13.20;70.20;;;;;;4956943;28;20403;-73
2021/09/29 06:48:10;;;;;;;17.85;8.57;;;13.30;70.90;;;;;;4966374;28;20408;-75
2021/09/29 06:50:36;;;;;;;37.70;23.15;;;13.20;71.90;;;;;;4972222;28;20439;-75
2021/09/29 06:53:02;;;;;;;15.25;6.75;;;13.10;74.10;;;;;;4972353;28;20447;-73
2021/09/29 06:55:27;;;;;;;14.47;6.13;;;13.20;72.80;;;;;;4956864;28;20863;-75
2021/09/29 06:57:53;;;;;;;16.20;6.90;;;13.30;73.00;;;;;;4962163;28;20404;-75
2021/09/29 07:00:19;;;;;;;16.30;6.93;;;13.20;73.00;;;;;;4960233;28;20414;-75
2021/09/29 07:02:46;;;;;;;14.10;6.50;;;13.30;72.30;;;;;;4975687;28;20942;-75
2021/09/29 07:05:13;;;;;;;10.98;6.30;;;13.20;72.20;;;;;;4974112;28;20403;-74
2021/09/29 07:07:39;;;;;;;19.70;7.47;;;13.20;73.00;;;;;;4973856;28;20406;-75
2021/09/29 07:10:07;;;;;;;15.80;6.93;;;13.30;73.40;;;;;;4972869;28;20387;-75
2021/09/29 07:12:34;;;;;;;14.07;6.10;;;13.20;73.70;;;;;;4953373;28;20819;-73
2021/09/29 07:14:59;;;;;;;15.68;5.88;;;13.10;75.60;;;;;;4961487;28;20908;-75
2021/09/29 07:17:27;;;;;;;19.47;6.40;;;13.10;76.10;;;;;;4973248;28;20487;-73
2021/09/29 07:19:57;;;;;;;13.50;6.80;;;13.00;77.80;;;;;;4972752;28;20475;-75
2021/09/29 07:22:23;;;;;;;11.50;5.95;;;13.00;79.00;;;;;;4973468;28;20435;-74
2021/09/29 07:24:48;;;;;;;15.37;6.57;;;13.20;76.70;;;;;;4973445;28;20396;-74
2021/09/29 07:27:14;;;;;;;13.30;7.00;;;13.40;73.50;;;;;;4972498;28;20775;-75
2021/09/29 07:29:40;;;;;;;16.50;6.30;;;13.50;71.80;;;;;;4972501;28;20874;-74
2021/09/29 07:32:05;;;;;;;15.30;6.80;;;13.50;70.60;;;;;;4972391;28;20812;-74
2021/09/29 07:34:31;;;;;;;14.02;6.80;;;13.50;71.70;;;;;;4972735;28;20980;-75
2021/09/29 07:36:57;;;;;;;14.00;6.70;;;13.50;72.20;;;;;;4973113;28;20397;-76
2021/09/29 07:39:22;;;;;;;13.60;7.30;;;13.60;72.90;;;;;;4973120;28;20384;-75
2021/09/29 07:41:48;;;;;;;13.55;7.00;;;13.60;72.80;;;;;;4971354;28;20781;-75
2021/09/29 07:44:13;;;;;;;15.05;7.03;;;13.70;73.40;;;;;;4972122;28;20483;-74
2021/09/29 07:46:39;;;;;;;16.83;6.57;;;13.70;72.40;;;;;;4972131;28;20407;-73
2021/09/29 07:49:05;;;;;;;19.70;7.10;;;13.80;72.00;;;;;;4971712;28;20828;-75
2021/09/29 07:51:30;;;;;;;16.90;7.27;;;13.90;71.80;;;;;;4972329;28;20392;-74
2021/09/29 07:53:56;;;;;;;17.37;7.40;;;13.90;72.10;;;;;;4972110;28;20404;-75
2021/09/29 07:56:21;;;;;;;17.70;8.30;;;13.90;72.90;;;;;;4979913;28;20923;-74
2021/09/29 07:58:47;;;;;;;14.05;6.68;;;14.00;73.20;;;;;;4991631;28;20474;-75
2021/09/29 08:01:12;;;;;;;12.82;7.13;;;14.10;72.70;;;;;;4991187;28;20394;-74
2021/09/29 08:03:42;;;;;;;17.45;6.97;;;14.20;72.10;;;;;;4976801;28;20407;-75
2021/09/29 08:06:08;;;;;;;10.67;6.60;;;14.20;69.50;;;;;;4970828;28;20404;-75
2021/09/29 08:08:33;;;;;;;15.20;6.70;;;14.30;70.30;;;;;;4972360;28;20392;-73
2021/09/29 08:11:00;;;;;;;13.20;6.60;;;14.20;71.10;;;;;;4972219;28;20396;-75
2021/09/29 08:13:25;;;;;;;14.02;7.25;;;14.20;71.90;;;;;;4970507;28;20408;-74
2021/09/29 08:15:51;;;;;;;14.95;6.70;;;14.10;70.60;;;;;;4970889;28;20408;-73
2021/09/29 08:18:16;;;;;;;12.45;7.43;;;14.10;70.40;;;;;;4973077;28;20453;-75
2021/09/29 08:20:43;;;;;;;17.80;8.18;;;14.10;70.40;;;;;;4977782;28;20738;-74
2021/09/29 08:23:16;;;;;;;13.48;7.53;;;14.10;72.40;;;;;;4975144;28;20406;-74
2021/09/29 08:31:01;;;;;;;16.20;7.80;;;13.90;76.00;;;;;;4977484;28;20411;-75
2021/09/29 08:36:29;;;;;;;13.80;8.10;;;14.00;76.90;;;;;;4976089;28;20396;-75
2021/09/29 08:38:52;;;;;;;12.30;6.90;;;14.00;76.90;;;;;;4971631;28;20388;-74
2021/09/29 08:44:10;;;;;;;14.77;7.83;;;14.20;74.70;;;;;;4972435;28;20473;-74
2021/09/29 08:46:57;;;;;;;18.80;6.90;;;14.20;77.30;;;;;;4971063;28;20512;-75
2021/09/29 09:16:40;;;;;;;13.20;6.10;;;15.80;56.20;;;;;;4973874;28;20472;-76
2021/09/29 09:19:10;;;;;;;16.90;6.30;;;15.60;57.50;;;;;;4974748;28;20388;-75
2021/09/29 09:21:42;;;;;;;16.35;7.40;;;15.40;59.50;;;;;;4976499;28;20453;-74
2021/09/29 09:24:20;;;;;;;13.50;6.70;;;15.30;61.60;;;;;;4974854;28;20414;-75
2021/09/29 09:27:02;;;;;;;14.00;6.65;;;15.40;59.40;;;;;;4974808;28;20432;-75
2021/09/29 09:29:29;;;;;;;12.30;4.88;;;15.50;53.90;;;;;;4974048;28;20790;-73
2021/09/29 09:32:09;;;;;;;10.60;4.65;;;15.40;53.20;;;;;;4974299;28;20494;-73
2021/09/29 09:34:35;;;;;;;7.33;3.10;;;15.40;53.50;;;;;;4974950;28;20739;-74
2021/09/29 09:37:01;;;;;;;6.50;3.00;;;15.10;53.90;;;;;;4974594;28;20407;-72
2021/09/29 09:39:28;;;;;;;8.90;3.50;;;14.90;55.80;;;;;;4974471;28;20512;-73
2021/09/29 09:41:58;;;;;;;5.82;2.78;;;14.90;55.30;;;;;;4974431;28;20389;-73
2021/09/29 09:44:37;;;;;;;3.88;2.28;;;14.80;51.70;;;;;;4973880;28;20452;-73
2021/09/29 09:47:11;;;;;;;2.40;1.20;;;14.70;53.50;;;;;;4959722;28;20400;-73
2021/09/29 09:50:04;;;;;;;2.10;1.30;;;14.80;48.70;;;;;;4986169;28;20400;-73
2021/09/29 09:52:36;;;;;;;1.77;1.10;;;14.70;46.30;;;;;;4973574;28;20412;-76
2021/09/29 09:55:07;;;;;;;2.42;1.10;;;14.60;45.80;;;;;;4978910;28;20893;-73
2021/09/29 09:57:35;;;;;;;1.40;1.25;;;14.60;45.40;;;;;;4978490;28;20408;-72
2021/09/29 10:00:04;;;;;;;2.40;1.30;;;14.60;47.40;;;;;;4957296;28;20439;-73
2021/09/29 10:02:42;;;;;;;4.57;1.30;;;14.50;49.30;;;;;;4974218;28;20658;-75
2021/09/29 10:05:10;;;;;;;3.40;1.20;;;14.50;52.10;;;;;;4973365;28;20884;-75
2021/09/29 10:07:35;;;;;;;2.28;1.30;;;14.50;51.00;;;;;;4974057;28;20407;-75
2021/09/29 10:10:08;;;;;;;2.90;1.00;;;14.50;50.00;;;;;;4976629;28;20392;-75
2021/09/29 10:22:49;;;;;;;3.70;1.30;;;14.30;54.40;;;;;;4978601;28;20388;-75
2021/09/29 10:26:23;;;;;;;2.90;1.40;;;14.40;54.90;;;;;;4973236;28;20825;-77
2021/09/29 10:28:49;;;;;;;2.15;1.30;;;14.50;56.40;;;;;;4973545;28;20758;-76
2021/09/29 10:34:24;;;;;;;5.50;1.60;;;14.80;50.90;;;;;;4977922;28;20912;-76
2021/09/29 10:37:26;;;;;;;3.70;1.48;;;15.00;52.00;;;;;;4955111;28;20425;-75
2021/09/29 10:42:55;;;;;;;4.70;1.85;;;15.10;48.60;;;;;;4954257;29;20416;-76
2021/09/29 10:48:26;;;;;;;4.30;1.83;;;15.40;46.50;;;;;;4957363;28;20404;-75
2021/09/29 11:29:49;;;;;;;2.50;1.90;;;15.80;41.40;;;;;;4956996;29;20393;-74
2021/09/29 11:34:54;;;;;;;2.63;2.37;;;16.10;38.80;;;;;;4972983;28;20400;-75
2021/09/29 11:37:38;;;;;;;8.43;2.53;;;16.60;38.40;;;;;;4972722;28;20462;-75
2021/09/29 12:07:58;;;;;;;3.00;2.70;;;16.00;38.90;;;;;;4962297;28;20496;-74
2021/09/29 12:10:24;;;;;;;4.50;2.80;;;15.80;41.00;;;;;;4972773;28;20419;-75
2021/09/29 12:12:52;;;;;;;3.05;2.70;;;16.00;40.20;;;;;;4971752;28;20418;-74
2021/09/29 12:15:18;;;;;;;3.53;2.60;;;16.10;39.50;;;;;;4972430;28;20915;-75
2021/09/29 12:17:49;;;;;;;5.40;2.40;;;16.20;38.70;;;;;;4972993;28;20400;-74
2021/09/29 12:20:27;;;;;;;4.30;2.90;;;16.10;39.50;;;;;;4972940;28;20400;-75
2021/09/29 12:22:56;;;;;;;4.80;2.90;;;16.20;39.30;;;;;;4967003;28;20388;-75
2021/09/29 12:25:31;;;;;;;4.63;3.17;;;16.30;38.40;;;;;;4973306;28;20470;-76
2021/09/29 12:31:06;;;;;;;5.00;3.20;;;16.40;37.60;;;;;;4974480;28;20443;-76
2021/09/29 12:33:48;;;;;;;7.10;3.10;;;16.40;37.10;;;;;;4973433;28;20496;-76
2021/09/29 12:36:24;;;;;;;4.70;3.40;;;16.60;37.30;;;;;;4975660;28;20392;-76
2021/09/29 12:38:51;;;;;;;3.70;2.45;;;16.70;35.40;;;;;;4979145;28;20681;-77
2021/09/29 12:41:17;;;;;;;4.25;2.50;;;16.90;34.50;;;;;;4978164;28;20420;-77
2021/09/29 12:43:43;;;;;;;8.48;2.97;;;17.10;30.20;;;;;;4975735;28;20407;-75
2021/09/29 12:46:13;;;;;;;4.07;2.33;;;17.30;29.70;;;;;;4974164;28;20396;-75
2021/09/29 12:48:42;;;;;;;5.40;2.40;;;18.00;28.70;;;;;;4974730;28;20431;-75
2021/09/29 12:51:11;;;;;;;13.68;2.60;;;18.40;26.00;;;;;;4976293;28;20597;-75
2021/09/29 12:53:50;;;;;;;7.00;1.30;;;17.70;24.10;;;;;;4974304;28;21108;-75
2021/09/29 12:56:16;;;;;;;2.10;1.20;;;15.80;24.80;;;;;;4983788;28;20398;-76
2021/09/29 12:58:42;;;;;;;6.13;1.67;;;13.60;40.80;;;;;;4996822;28;20895;-76
2021/09/29 13:01:08;;;;;;;3.27;1.50;;;12.50;48.60;;;;;;4980558;28;20413;-75
2021/09/29 13:03:33;;;;;;;3.20;1.00;;;11.80;55.20;;;;;;4974453;28;20410;-76
2021/09/29 13:05:59;;;;;;;3.70;1.70;;;11.30;56.60;;;;;;4975923;28;20432;-75
2021/09/29 13:08:26;;;;;;;4.97;1.90;;;11.00;59.90;;;;;;4976270;28;20396;-75
2021/09/29 13:10:52;;;;;;;3.45;1.20;;;11.00;62.30;;;;;;4976802;28;20839;-75
2021/09/29 13:13:17;;;;;;;2.67;1.45;;;10.90;63.90;;;;;;4975135;28;20423;-76
2021/09/29 13:15:51;;;;;;;5.70;1.67;;;10.90;62.90;;;;;;4975476;28;20471;-75
2021/09/29 13:18:28;;;;;;;6.45;2.25;;;11.00;61.70;;;;;;4975367;28;20746;-76
2021/09/29 13:21:07;;;;;;;8.38;3.28;;;11.00;64.60;;;;;;4975214;28;20379;-76
2021/09/29 13:23:39;;;;;;;5.95;2.17;;;11.20;71.20;;;;;;4973839;28;20396;-76
2021/09/29 13:36:46;;;;;;;3.60;1.67;;;13.90;42.90;;;;;;4960509;29;20429;-75
2021/09/29 13:39:17;;;;;;;3.17;1.90;;;14.10;38.70;;;;;;4956538;28;20788;-75
2021/09/29 13:41:45;;;;;;;3.33;1.30;;;14.30;39.30;;;;;;4956243;28;20397;-77
2021/09/29 13:44:12;;;;;;;1.80;1.50;;;14.50;39.60;;;;;;4956189;28;20393;-76
2021/09/29 13:46:39;;;;;;;6.22;1.77;;;14.60;37.60;;;;;;4974781;28;20404;-77
2021/09/29 13:49:07;;;;;;;3.05;1.27;;;15.00;37.00;;;;;;4975444;28;20411;-76
2021/09/29 13:51:37;;;;;;;3.35;1.55;;;15.30;33.10;;;;;;4975816;28;20398;-76
2021/09/29 13:54:26;;;;;;;4.10;1.50;;;15.30;31.80;;;;;;4976070;28;20495;-73
2021/09/29 13:56:59;;;;;;;2.53;1.20;;;15.50;31.60;;;;;;4987083;28;20477;-73
2021/09/29 13:59:37;;;;;;;5.93;1.33;;;16.00;31.70;;;;;;4983650;28;20499;-73
2021/09/29 14:29:27;;;;;;;4.65;1.50;;;19.90;18.80;;;;;;4973856;28;20482;-72
2021/09/29 14:34:18;;;;;;;4.70;1.67;;;19.80;19.80;;;;;;4974289;28;20412;-73
2021/09/29 14:36:45;;;;;;;4.83;1.80;;;20.10;19.50;;;;;;4973521;28;20438;-75
2021/09/29 14:39:11;;;;;;;3.88;1.90;;;19.80;19.10;;;;;;4973169;28;20396;-73
2021/09/29 14:41:36;;;;;;;3.40;1.65;;;19.10;20.10;;;;;;4975218;28;20874;-74
2021/09/29 14:44:02;;;;;;;6.00;1.90;;;18.50;22.80;;;;;;4976433;28;20404;-75
2021/09/29 14:46:28;;;;;;;5.20;1.90;;;17.70;24.40;;;;;;4974833;28;20520;-73
2021/09/29 14:48:53;;;;;;;6.70;1.95;;;17.00;26.20;;;;;;4975807;28;20400;-73
2021/09/29 14:51:19;;;;;;;7.33;2.20;;;16.50;29.50;;;;;;4975258;28;20399;-74
2021/09/29 14:53:48;;;;;;;5.30;1.60;;;16.00;32.80;;;;;;4976043;28;20539;-73
2021/09/29 14:56:19;;;;;;;3.55;1.80;;;15.50;30.00;;;;;;4976119;28;20404;-73
2021/09/29 14:58:46;;;;;;;4.18;2.28;;;15.10;34.10;;;;;;4975444;28;20839;-73
2021/09/29 15:01:12;;;;;;;3.92;1.85;;;14.60;38.10;;;;;;4975622;28;20876;-73
2021/09/29 15:03:40;;;;;;;5.93;2.20;;;14.70;39.40;;;;;;4977077;28;20847;-73
2021/09/29 15:06:06;;;;;;;6.70;2.10;;;15.70;36.80;;;;;;4976963;28;20427;-73
2021/09/29 15:08:33;;;;;;;5.03;1.90;;;17.00;36.70;;;;;;4977572;28;20480;-74
2021/09/29 15:10:59;;;;;;;4.40;2.03;;;18.20;28.20;;;;;;4976071;28;20415;-74
2021/09/29 15:13:27;;;;;;;4.97;1.63;;;19.30;26.40;;;;;;4977486;28;21005;-73
2021/09/29 15:18:35;;;;;;;4.57;1.60;;;20.40;20.50;;;;;;4977063;28;20408;-73
2021/09/29 15:48:11;;;;;;;7.10;2.25;;;20.50;18.50;;;;;;4937135;29;20511;-75
2021/09/29 15:54:06;;;;;;;3.30;1.40;;;19.80;18.50;;;;;;4977610;28;20950;-74
2021/09/29 15:56:08;;;;;;;12.52;1.80;;;18.60;19.20;;;;;;4981048;28;20916;-76
2021/09/29 16:11:45;;;;;;;2.88;1.50;;;15.70;27.50;;;;;;4975186;28;20508;-74
2021/09/29 16:14:39;;;;;;;4.50;1.58;;;15.60;27.30;;;;;;4954276;28;20868;-73
2021/09/29 16:35:25;;;;;;;3.40;1.50;;;14.70;28.50;;;;;;4977221;28;20738;-71
2021/09/29 16:37:51;;;;;;;5.50;1.40;;;14.60;29.30;;;;;;4976519;28;20388;-72
2021/09/29 16:40:17;;;;;;;3.00;1.77;;;14.50;29.30;;;;;;4975948;28;20423;-73